TimeMDT,TemperatureF,Dew PointF,Humidity,Sea Level PressureIn,VisibilityMPH,Wind Direction,Wind SpeedMPH,Gust SpeedMPH,PrecipitationIn,Events,Conditions,WindDirDegrees,DateUTC
12:53 AM,46.0,42.1,86,30.04,10.0,NNE,3.5,-,N/A,,Clear,30,2013-08-29 06:53:00
1:53 AM,43.0,39.9,89,30.05,10.0,NNE,3.5,-,N/A,,Clear,30,2013-08-29 07:53:00
2:53 AM,44.1,39.9,85,30.04,10.0,ENE,6.9,-,N/A,,Clear,60,2013-08-29 08:53:00
3:53 AM,41.0,37.9,89,30.08,10.0,Calm,Calm,-,N/A,,Clear,0,2013-08-29 09:53:00
4:53 AM,41.0,37.9,89,30.11,10.0,NE,3.5,-,N/A,,Clear,40,2013-08-29 10:53:00
5:53 AM,41.0,37.9,89,30.11,10.0,ENE,4.6,-,N/A,,Clear,60,2013-08-29 11:53:00
6:53 AM,41.0,37.9,89,30.14,10.0,NE,5.8,-,N/A,,Clear,40,2013-08-29 12:53:00
7:53 AM,48.9,41.0,74,30.13,10.0,Calm,Calm,-,N/A,,Partly Cloudy,0,2013-08-29 13:53:00
8:53 AM,57.0,42.1,57,30.11,10.0,NW,3.5,-,N/A,,Scattered Clouds,310,2013-08-29 14:53:00
9:53 AM,63.0,43.0,48,30.08,10.0,Calm,Calm,-,N/A,,Clear,0,2013-08-29 15:53:00
10:53 AM,69.1,39.0,33,30.03,10.0,Calm,Calm,-,N/A,,Partly Cloudy,0,2013-08-29 16:53:00
11:53 AM,69.1,35.1,29,30.04,10.0,Variable,4.6,-,N/A,,Mostly Cloudy,0,2013-08-29 17:53:00
12:53 PM,71.1,36.0,28,30.03,10.0,Variable,3.5,-,N/A,,Mostly Cloudy,0,2013-08-29 18:53:00
1:53 PM,68.0,37.0,32,30.08,10.0,Variable,3.5,-,N/A,,Overcast,0,2013-08-29 19:53:00
2:53 PM,72.0,35.1,26,30.03,10.0,Variable,4.6,-,0.00,,Clear,0,2013-08-29 20:53:00
3:53 PM,71.1,36.0,28,30.05,10.0,WSW,6.9,-,N/A,,Mostly Cloudy,250,2013-08-29 21:53:00
4:06 PM,66.2,39.2,37,30.56,10.0,West,12.7,21.9,N/A,Thunderstorm,Mostly Cloudy,260,2013-08-29 22:06:00
4:53 PM,69.1,37.9,32,30.08,10.0,Calm,Calm,-,N/A,Thunderstorm,Mostly Cloudy,0,2013-08-29 22:53:00
5:11 PM,69.8,37.4,31,30.57,10.0,NE,9.2,-,N/A,,Scattered Clouds,50,2013-08-29 23:11:00
5:53 PM,64.9,41.0,42,30.11,10.0,Variable,5.8,-,N/A,,Scattered Clouds,0,2013-08-29 23:53:00
6:53 PM,59.0,46.0,62,30.18,10.0,North,13.8,20.7,N/A,,Overcast,360,2013-08-30 00:53:00
7:53 PM,57.0,46.0,67,30.17,10.0,North,11.5,-,0.00,Rain,Light Rain,360,2013-08-30 01:53:00
8:53 PM,55.0,46.9,74,30.15,10.0,NNW,5.8,-,0.01,,Overcast,330,2013-08-30 02:53:00
9:53 PM,53.1,46.9,80,30.15,10.0,North,9.2,-,0.00,Rain,Light Rain,360,2013-08-30 03:53:00
10:53 PM,53.1,46.0,77,30.12,10.0,North,10.4,-,0.00,,Overcast,10,2013-08-30 04:53:00
11:53 PM,51.1,48.0,89,30.14,7.0,WSW,5.8,-,0.01,Rain,Light Rain,240,2013-08-30 05:53:00